createdAt,value
2022-12-16T00:01:45.784Z,197.10
2022-12-16T00:04:13.176Z,203.13
2022-12-16T00:06:40.051Z,198.02
2022-12-16T00:09:06.976Z,202.93
2022-12-16T00:11:34.063Z,203.27
2022-12-16T00:14:01.829Z,208.98
2022-12-16T00:16:29.225Z,212.45
2022-12-16T00:18:56.351Z,223.15
2022-12-16T00:21:28.829Z,219.80
2022-12-16T00:23:57.559Z,225.02
2022-12-16T00:26:24.916Z,226.30
2022-12-16T00:28:51.862Z,217.68
2022-12-16T00:31:19.299Z,209.18
2022-12-16T00:33:46.400Z,217.05
2022-12-16T00:36:13.662Z,212.07
2022-12-16T00:38:40.715Z,218.45
2022-12-16T00:41:08.236Z,202.45
2022-12-16T00:43:35.534Z,220.38
2022-12-16T00:46:03.044Z,221.85
2022-12-16T00:48:31.727Z,217.60
2022-12-16T00:50:58.650Z,209.73
2022-12-16T00:53:25.615Z,221.82
2022-12-16T00:56:01.538Z,220.80
2022-12-16T00:58:28.757Z,247.00
2022-12-16T01:00:55.829Z,227.82
2022-12-16T01:03:22.986Z,229.07
2022-12-16T01:05:50.068Z,220.10
2022-12-16T01:08:17.822Z,212.73
2022-12-16T01:10:51.649Z,228.18
2022-12-16T01:13:20.064Z,213.13
2022-12-16T01:15:47.372Z,218.73
2022-12-16T01:18:15.335Z,241.43
2022-12-16T01:20:42.395Z,252.27
2022-12-16T01:23:09.837Z,237.35
2022-12-16T01:25:36.996Z,249.52
2022-12-16T01:28:04.241Z,240.02
2022-12-16T01:30:31.552Z,228.77
2022-12-16T01:32:58.414Z,264.27
2022-12-16T01:38:13.350Z,234.00
2022-12-16T01:40:40.406Z,237.20
2022-12-16T01:43:13.969Z,234.15
2022-12-16T01:45:41.251Z,232.13
2022-12-16T01:48:19.180Z,226.27
2022-12-16T01:50:46.712Z,215.98
2022-12-16T01:53:14.266Z,234.13
2022-12-16T01:55:48.996Z,221.70
2022-12-16T01:58:23.945Z,235.23
2022-12-16T02:00:51.376Z,228.98
2022-12-16T02:03:18.969Z,233.57
2022-12-16T02:05:48.235Z,231.15
2022-12-16T02:08:16.234Z,218.70
2022-12-16T02:10:43.060Z,208.00
2022-12-16T02:13:26.562Z,201.35
2022-12-16T02:16:40.978Z,193.55
2022-12-16T02:19:41.466Z,209.90
2022-12-16T02:22:36.054Z,195.30
2022-12-16T02:25:09.129Z,204.93
2022-12-16T02:28:11.900Z,199.38
2022-12-16T02:30:55.797Z,209.25
2022-12-16T02:33:37.818Z,208.25
2022-12-16T02:36:08.090Z,213.10
2022-12-16T02:39:07.403Z,194.13
2022-12-16T02:41:53.289Z,193.80
2022-12-16T02:44:48.430Z,235.32
2022-12-16T02:47:15.864Z,194.50
2022-12-16T02:49:49.038Z,212.90
2022-12-16T02:52:19.918Z,174.07
2022-12-16T02:54:49.008Z,166.43
2022-12-16T02:57:28.294Z,170.68
2022-12-16T03:00:06.079Z,157.85
2022-12-16T03:02:36.538Z,160.77
2022-12-16T03:05:10.773Z,145.15
2022-12-16T03:07:41.466Z,142.95
2022-12-16T03:10:12.553Z,138.38
2022-12-16T03:12:43.697Z,135.38
2022-12-16T03:15:14.031Z,122.43
2022-12-16T03:17:42.309Z,121.10
2022-12-16T03:20:18.367Z,125.45
2022-12-16T03:22:48.540Z,118.25
2022-12-16T03:25:16.537Z,117.63
2022-12-16T03:27:57.684Z,116.45
2022-12-16T03:30:33.341Z,109.78
2022-12-16T03:33:05.383Z,126.45
2022-12-16T03:35:35.445Z,138.93
2022-12-16T03:38:06.534Z,139.82
2022-12-16T03:40:34.804Z,165.18
2022-12-16T03:43:03.416Z,173.20
2022-12-16T03:45:39.245Z,174.18
2022-12-16T03:48:11.632Z,180.93
2022-12-16T03:50:39.752Z,168.50
2022-12-16T03:53:07.717Z,156.45
2022-12-16T03:55:35.557Z,144.13
2022-12-16T03:58:02.648Z,153.02
2022-12-16T04:00:30.017Z,140.18
2022-12-16T04:02:57.573Z,134.40
2022-12-16T04:05:26.693Z,138.50
2022-12-16T04:08:00.238Z,150.77
2022-12-16T04:10:48.002Z,137.30
2022-12-16T04:13:34.097Z,126.93
2022-12-16T04:16:19.948Z,134.45
2022-12-16T04:19:06.720Z,134.43
2022-12-16T04:21:52.857Z,135.55
2022-12-16T04:24:24.673Z,126.15
2022-12-16T04:27:15.326Z,130.68
2022-12-16T04:30:02.427Z,122.10
2022-12-16T04:32:51.661Z,116.93
2022-12-16T04:35:37.242Z,110.18
2022-12-16T04:38:23.946Z,99.28
2022-12-16T04:41:09.653Z,100.53
2022-12-16T04:43:55.615Z,90.72
2022-12-16T04:46:41.505Z,97.07
2022-12-16T04:49:27.448Z,96.40
2022-12-16T04:52:13.081Z,82.90
2022-12-16T04:54:58.885Z,78.95
2022-12-16T04:57:44.792Z,79.97
2022-12-16T05:00:31.384Z,73.85
2022-12-16T05:03:17.027Z,79.68
2022-12-16T05:06:02.520Z,77.72
2022-12-16T05:08:48.458Z,73.10
2022-12-16T05:11:34.017Z,74.65
2022-12-16T05:14:19.496Z,76.25
2022-12-16T05:17:05.120Z,83.13
2022-12-16T05:19:50.859Z,82.03
2022-12-16T05:22:36.486Z,75.35
2022-12-16T05:25:23.127Z,76.50
2022-12-16T05:28:10.189Z,81.05
2022-12-16T05:30:56.400Z,79.05
2022-12-16T05:33:43.179Z,87.18
2022-12-16T05:36:28.713Z,87.22
2022-12-16T05:39:14.373Z,83.88
2022-12-16T05:41:59.746Z,75.85
2022-12-16T05:44:45.453Z,84.68
2022-12-16T05:47:31.212Z,80.35
2022-12-16T05:50:16.803Z,76.80
2022-12-16T05:53:13.893Z,83.05
2022-12-16T05:56:01.664Z,70.38
2022-12-16T05:58:48.189Z,76.00
2022-12-16T06:01:34.180Z,76.90
2022-12-16T06:04:19.841Z,81.00
2022-12-16T06:07:06.076Z,60.17
2022-12-16T06:09:56.636Z,73.93
2022-12-16T06:12:43.106Z,81.03
2022-12-16T06:15:29.870Z,91.82
2022-12-16T06:18:15.617Z,87.75
2022-12-16T06:21:02.156Z,86.15
2022-12-16T06:23:47.783Z,80.30
2022-12-16T06:26:33.555Z,75.68
2022-12-16T06:29:19.102Z,71.40
2022-12-16T06:32:05.031Z,77.88
2022-12-16T06:34:50.977Z,88.07
2022-12-16T06:37:36.584Z,80.47
2022-12-16T06:40:22.777Z,75.88
2022-12-16T06:43:08.364Z,78.13
2022-12-16T06:45:54.341Z,71.15
2022-12-16T06:48:39.687Z,74.25
2022-12-16T06:51:25.438Z,68.88
2022-12-16T06:54:11.467Z,65.85
2022-12-16T06:56:58.245Z,67.03
2022-12-16T06:59:43.916Z,67.10
2022-12-16T07:02:30.148Z,72.47
2022-12-16T07:05:15.806Z,76.03
2022-12-16T07:08:09.486Z,73.15
2022-12-16T07:11:00.343Z,109.00
2022-12-16T07:13:55.886Z,82.88
2022-12-16T07:16:41.700Z,84.68
2022-12-16T07:19:27.463Z,81.18
2022-12-16T07:22:13.163Z,88.72
2022-12-16T07:24:58.851Z,95.35
2022-12-16T07:27:44.739Z,80.90
2022-12-16T07:30:30.891Z,88.18
2022-12-16T07:33:16.650Z,111.95
2022-12-16T07:36:02.318Z,78.40
2022-12-16T07:38:48.109Z,114.80
2022-12-16T07:41:33.982Z,88.93
2022-12-16T07:44:23.195Z,84.95
2022-12-16T07:47:08.956Z,89.55
2022-12-16T07:49:55.435Z,85.47
2022-12-16T07:52:41.907Z,81.18
2022-12-16T07:55:28.060Z,81.47
2022-12-16T07:58:13.811Z,106.63
2022-12-16T08:01:06.287Z,86.70
2022-12-16T08:03:54.660Z,93.07
2022-12-16T08:06:42.255Z,85.20
2022-12-16T08:09:28.024Z,87.00
2022-12-16T08:12:18.376Z,91.75
2022-12-16T08:15:03.771Z,91.47
2022-12-16T08:17:49.376Z,114.93
2022-12-16T08:20:34.937Z,93.63
2022-12-16T08:23:20.942Z,88.45
2022-12-16T08:26:06.580Z,91.10
2022-12-16T08:28:52.678Z,82.07
2022-12-16T08:31:38.389Z,80.10
2022-12-16T08:34:24.437Z,78.35
2022-12-16T08:37:09.978Z,81.50
2022-12-16T08:40:18.043Z,81.95
2022-12-16T08:43:01.490Z,77.05
2022-12-16T08:45:47.350Z,73.45
2022-12-16T08:48:33.211Z,74.25
2022-12-16T08:51:26.390Z,76.38
2022-12-16T08:54:12.040Z,83.30
2022-12-16T08:56:57.843Z,87.10
2022-12-16T08:59:44.567Z,86.78
2022-12-16T09:02:31.281Z,83.53
2022-12-16T09:05:17.130Z,88.70
2022-12-16T09:08:02.895Z,89.38
2022-12-16T09:10:48.543Z,80.78
2022-12-16T09:13:35.298Z,77.05
2022-12-16T09:16:21.793Z,77.20
2022-12-16T09:19:07.397Z,78.38
2022-12-16T09:21:54.828Z,78.22
2022-12-16T09:24:40.827Z,75.43
2022-12-16T09:27:26.259Z,82.60
2022-12-16T09:30:11.815Z,73.32
2022-12-16T09:33:02.531Z,72.75
2022-12-16T09:35:48.582Z,84.82
2022-12-16T09:38:35.981Z,75.13
2022-12-16T09:41:46.725Z,79.22
2022-12-16T09:44:49.248Z,68.57
2022-12-16T09:47:41.231Z,67.40
2022-12-16T09:50:38.329Z,70.93
2022-12-16T09:53:28.392Z,69.53
2022-12-16T09:56:15.450Z,63.38
2022-12-16T09:59:18.543Z,67.43
2022-12-16T10:02:04.748Z,66.07
2022-12-16T10:04:51.051Z,69.47
2022-12-16T10:07:42.135Z,65.88
2022-12-16T10:10:36.403Z,67.25
2022-12-16T10:13:49.699Z,70.38
2022-12-16T10:16:38.519Z,80.85
2022-12-16T10:19:36.043Z,86.07
2022-12-16T10:22:46.531Z,82.20
2022-12-16T10:25:35.361Z,75.57
2022-12-16T10:28:37.487Z,82.13
2022-12-16T10:31:32.250Z,80.13
2022-12-16T10:34:17.767Z,76.53
2022-12-16T10:37:11.681Z,75.18
2022-12-16T10:40:07.850Z,81.07
2022-12-16T10:43:00.366Z,71.88
2022-12-16T10:45:53.744Z,83.18
2022-12-16T10:48:56.735Z,80.60
2022-12-16T10:51:47.049Z,80.30
2022-12-16T10:54:38.744Z,78.43
2022-12-16T10:57:33.783Z,68.88
2022-12-16T11:00:32.856Z,70.07
2022-12-16T11:03:42.797Z,64.63
2022-12-16T11:06:29.671Z,69.85
2022-12-16T11:09:15.340Z,72.32
2022-12-16T11:12:01.452Z,76.03
2022-12-16T11:15:12.708Z,74.22
2022-12-16T11:17:56.071Z,89.22
2022-12-16T11:20:44.259Z,75.22
2022-12-16T11:23:45.160Z,69.50
2022-12-16T11:26:38.448Z,66.38
2022-12-16T11:29:25.620Z,67.97
2022-12-16T11:32:42.661Z,63.00
2022-12-16T11:35:37.739Z,69.53
2022-12-16T11:38:29.684Z,60.75
2022-12-16T11:41:16.847Z,56.55
2022-12-16T11:44:05.992Z,56.08
2022-12-16T11:46:51.920Z,52.83
2022-12-16T11:49:51.967Z,56.45
2022-12-16T11:52:40.569Z,53.83
2022-12-16T11:59:01.270Z,52.15
2022-12-16T12:02:05.963Z,60.22
2022-12-16T12:04:51.452Z,55.50
2022-12-16T12:07:45.809Z,54.50
2022-12-16T12:10:38.174Z,51.63
2022-12-16T12:13:58.877Z,44.67
2022-12-16T12:16:59.313Z,50.85
2022-12-16T12:20:06.390Z,49.08
2022-12-16T12:22:57.514Z,50.30
2022-12-16T12:26:02.244Z,45.60
2022-12-16T12:28:54.269Z,48.70
2022-12-16T12:32:14.940Z,51.55
2022-12-16T12:35:19.850Z,48.95
2022-12-16T12:38:11.028Z,49.58
2022-12-16T12:41:03.829Z,48.53
2022-12-16T12:44:07.164Z,43.90
2022-12-16T12:47:16.653Z,46.47
2022-12-16T12:50:14.136Z,48.55
2022-12-16T12:53:43.061Z,42.45
2022-12-16T12:57:16.158Z,43.25
2022-12-16T13:00:37.181Z,43.17
2022-12-16T13:03:55.973Z,43.33
2022-12-16T13:06:42.699Z,46.72
2022-12-16T13:09:48.297Z,55.08
2022-12-16T13:12:34.282Z,46.20
2022-12-16T13:15:25.639Z,42.83
2022-12-16T13:18:20.460Z,46.17
2022-12-16T13:21:06.571Z,46.78
2022-12-16T13:23:57.780Z,46.45
2022-12-16T13:26:45.994Z,43.85
2022-12-16T13:29:46.895Z,48.60
2022-12-16T13:32:38.521Z,44.75
2022-12-16T13:35:27.122Z,43.70
2022-12-16T13:38:14.377Z,43.42
2022-12-16T13:41:17.197Z,45.42
2022-12-16T13:44:21.790Z,42.97
2022-12-16T13:47:13.350Z,45.00
2022-12-16T13:50:05.741Z,46.85
2022-12-16T13:53:07.351Z,41.90
2022-12-16T13:56:05.121Z,39.92
2022-12-16T13:59:12.987Z,43.95
2022-12-16T14:02:31.274Z,47.13
2022-12-16T14:05:17.575Z,46.70
2022-12-16T14:08:03.907Z,45.80
2022-12-16T14:10:53.300Z,42.63
2022-12-16T14:17:02.642Z,48.35
2022-12-16T14:19:53.625Z,48.33
2022-12-16T14:22:54.811Z,43.83
2022-12-16T14:25:42.138Z,49.33
2022-12-16T14:28:55.017Z,47.15
2022-12-16T14:31:49.130Z,44.22
2022-12-16T14:35:04.619Z,44.22
2022-12-16T14:37:55.947Z,44.67
2022-12-16T14:40:43.241Z,53.45
2022-12-16T14:43:35.524Z,46.97
2022-12-16T14:46:22.212Z,47.00
2022-12-16T14:49:09.570Z,46.17
2022-12-16T14:52:06.400Z,47.63
2022-12-16T14:54:57.990Z,50.55
2022-12-16T14:57:46.117Z,49.15
2022-12-16T15:00:42.471Z,47.65
2022-12-16T15:03:48.355Z,52.47
2022-12-16T15:07:02.043Z,43.85
2022-12-16T15:09:55.893Z,48.90
2022-12-16T15:12:48.187Z,43.58
2022-12-16T15:15:49.743Z,48.47
2022-12-16T15:18:40.554Z,44.72
2022-12-16T15:21:27.170Z,44.67
2022-12-16T15:24:13.265Z,41.80
2022-12-16T15:26:59.341Z,40.25
2022-12-16T15:29:53.309Z,41.22
2022-12-16T15:32:44.684Z,38.83
2022-12-16T15:35:50.030Z,41.78
2022-12-16T15:38:54.310Z,37.60
2022-12-16T15:41:50.133Z,35.42
2022-12-16T15:44:41.734Z,41.45
2022-12-16T15:47:53.230Z,36.70
2022-12-16T15:50:47.129Z,39.97
2022-12-16T15:53:55.179Z,41.92
2022-12-16T15:56:46.480Z,39.70
2022-12-16T15:59:50.342Z,37.53
2022-12-16T16:02:41.316Z,39.75
2022-12-16T16:05:39.719Z,41.63
2022-12-16T16:08:25.833Z,36.58
2022-12-16T16:11:11.732Z,43.40
2022-12-16T16:14:02.924Z,41.13
2022-12-16T16:16:51.880Z,43.63
2022-12-16T16:19:43.104Z,40.92
2022-12-16T16:22:34.203Z,39.33
2022-12-16T16:25:20.399Z,46.42
2022-12-16T16:28:06.246Z,55.75
2022-12-16T16:30:51.894Z,47.35
2022-12-16T16:33:37.791Z,41.65
2022-12-16T16:36:34.356Z,48.08
2022-12-16T16:39:20.398Z,49.75
2022-12-16T16:42:06.069Z,46.40
2022-12-16T16:44:51.641Z,44.95
2022-12-16T16:47:37.920Z,41.17
2022-12-16T16:50:25.503Z,56.35
2022-12-16T16:53:11.676Z,50.88
2022-12-16T16:55:57.983Z,43.83
2022-12-16T16:58:50.286Z,46.47
2022-12-16T17:01:37.350Z,42.25
2022-12-16T17:04:23.405Z,35.85
2022-12-16T17:07:09.039Z,36.95
2022-12-16T17:15:54.412Z,56.53
2022-12-16T17:18:46.589Z,56.47
2022-12-16T17:21:33.253Z,55.45
2022-12-16T17:24:19.150Z,53.17
2022-12-16T17:27:09.118Z,121.20
2022-12-16T17:29:55.906Z,87.70
2022-12-16T17:32:49.087Z,197.32
2022-12-16T17:35:36.175Z,106.97
2022-12-16T17:38:22.101Z,80.35
2022-12-16T17:41:11.082Z,109.43
2022-12-16T17:43:58.765Z,45.03
2022-12-16T17:46:44.229Z,76.55
2022-12-16T17:49:30.291Z,68.53
2022-12-16T17:52:17.150Z,68.85
2022-12-16T17:55:02.721Z,55.17
2022-12-16T17:57:49.013Z,54.30
2022-12-16T18:00:35.420Z,50.35
2022-12-16T18:03:22.466Z,60.17
2022-12-16T18:06:15.542Z,63.75
2022-12-16T18:09:01.156Z,52.15
2022-12-16T18:11:46.903Z,47.58
2022-12-16T18:14:32.485Z,51.38
2022-12-16T18:17:18.216Z,70.43
2022-12-16T18:20:04.095Z,82.18
2022-12-16T18:22:50.102Z,82.82
2022-12-16T18:25:35.949Z,86.50
2022-12-16T18:28:22.330Z,48.92
2022-12-16T18:31:07.964Z,41.22
2022-12-16T18:33:53.653Z,66.18
2022-12-16T18:36:39.487Z,44.35
2022-12-16T18:39:25.013Z,59.75
2022-12-16T18:42:10.910Z,50.28
2022-12-16T18:45:01.019Z,33.42
2022-12-16T18:47:49.402Z,36.10
2022-12-16T18:50:37.974Z,36.38
2022-12-16T18:53:27.767Z,40.88
2022-12-16T18:59:07.041Z,41.03
2022-12-16T19:01:57.422Z,33.08
2022-12-16T19:04:43.617Z,34.47
2022-12-16T19:07:33.378Z,32.55
2022-12-16T19:10:19.623Z,32.88
2022-12-16T19:13:05.048Z,33.78
2022-12-16T19:15:51.262Z,29.23
2022-12-16T19:18:37.427Z,30.35
2022-12-16T19:21:23.433Z,32.88
2022-12-16T19:24:09.374Z,32.05
2022-12-16T19:26:56.558Z,37.60
2022-12-16T19:29:43.061Z,37.65
2022-12-16T19:32:28.971Z,39.95
2022-12-16T19:35:14.661Z,42.80
2022-12-16T19:38:00.692Z,38.33
2022-12-16T19:41:12.575Z,37.83
2022-12-16T19:44:03.626Z,35.45
2022-12-16T19:46:51.725Z,34.92
2022-12-16T19:49:43.786Z,33.15
2022-12-16T19:52:30.120Z,33.58
2022-12-16T19:58:20.892Z,43.85
2022-12-16T20:01:06.873Z,38.92
2022-12-16T20:03:55.251Z,39.72
2022-12-16T20:06:42.394Z,42.03
2022-12-16T20:09:28.103Z,39.35
2022-12-16T20:12:16.224Z,38.35
2022-12-16T20:15:01.468Z,40.85
2022-12-16T20:17:50.458Z,39.78
2022-12-16T20:20:38.004Z,33.65
2022-12-16T20:23:23.677Z,35.25
2022-12-16T20:26:17.423Z,32.72
2022-12-16T20:29:03.671Z,30.40
2022-12-16T20:31:52.521Z,33.78
2022-12-16T20:34:41.454Z,35.20
2022-12-16T20:37:27.122Z,36.50
2022-12-16T20:40:13.470Z,36.67
2022-12-16T20:42:59.036Z,37.47
2022-12-16T20:45:44.680Z,33.17
2022-12-16T20:48:35.138Z,35.42
2022-12-16T20:51:26.546Z,41.60
2022-12-16T20:54:13.196Z,38.72
2022-12-16T20:56:59.657Z,37.72
2022-12-16T20:59:45.305Z,42.17
2022-12-16T21:02:34.103Z,40.63
2022-12-16T21:05:21.276Z,36.80
2022-12-16T21:08:06.843Z,44.53
2022-12-16T21:10:52.451Z,42.97
2022-12-16T21:13:41.737Z,39.83
2022-12-16T21:16:30.329Z,46.58
2022-12-16T21:19:16.387Z,43.60
2022-12-16T21:22:02.063Z,38.72
2022-12-16T21:24:47.542Z,41.78
2022-12-16T21:27:33.193Z,49.03
2022-12-16T21:30:18.710Z,46.95
2022-12-16T21:33:04.822Z,42.55
2022-12-16T21:35:50.864Z,48.17
2022-12-16T21:38:37.948Z,43.47
2022-12-16T21:41:24.098Z,44.25
2022-12-16T21:44:10.648Z,47.50
2022-12-16T21:46:56.046Z,47.85
2022-12-16T21:49:42.298Z,45.30
2022-12-16T21:52:27.913Z,50.45
2022-12-16T21:55:14.372Z,47.83
2022-12-16T21:58:05.578Z,47.90
2022-12-16T22:00:58.860Z,52.25
2022-12-16T22:03:52.299Z,47.17
2022-12-16T22:06:38.437Z,46.13
2022-12-16T22:09:24.090Z,50.92
2022-12-16T22:12:10.632Z,50.42
2022-12-16T22:14:56.588Z,60.90
2022-12-16T22:18:02.343Z,60.95
2022-12-16T22:20:47.775Z,51.92
2022-12-16T22:23:34.225Z,47.50
2022-12-16T22:26:20.810Z,54.38
2022-12-16T22:29:06.463Z,57.05
2022-12-16T22:31:52.263Z,53.72
2022-12-16T22:34:38.048Z,103.15
2022-12-16T22:36:20.429Z,33.67
2022-12-16T22:37:23.819Z,51.90
2022-12-16T22:40:09.125Z,77.18
2022-12-16T22:42:56.300Z,62.53
2022-12-16T22:45:42.104Z,53.15
2022-12-16T22:48:31.440Z,59.25
2022-12-16T22:51:16.855Z,53.47
2022-12-16T22:54:06.910Z,55.00
2022-12-16T22:56:52.669Z,55.92
2022-12-16T23:02:28.307Z,50.35
2022-12-16T23:05:13.796Z,49.95
2022-12-16T23:07:59.445Z,54.50
2022-12-16T23:10:45.642Z,50.30
2022-12-16T23:13:32.219Z,52.78
2022-12-16T23:16:17.712Z,54.70
2022-12-16T23:19:03.563Z,54.28
2022-12-16T23:21:49.031Z,55.97
2022-12-16T23:24:34.661Z,50.92
2022-12-16T23:27:20.379Z,49.00
2022-12-16T23:30:06.006Z,51.33
2022-12-16T23:32:51.353Z,46.70
2022-12-16T23:35:39.148Z,48.15
2022-12-16T23:38:25.593Z,46.60
2022-12-16T23:41:15.564Z,48.20
2022-12-16T23:44:01.632Z,46.30
2022-12-16T23:46:47.899Z,45.30
2022-12-16T23:49:33.697Z,45.28
2022-12-16T23:52:19.547Z,46.92
2022-12-16T23:55:05.058Z,44.60
2022-12-16T23:57:50.624Z,44.40
